Time;durP1;ratioP1;P1;durP2;ratioP2;P2;SDS_P1;SDS_P2;PMS_P1;PMS_P2;Temp;Humidity;BMP_temperature;BMP_pressure;BME280_temperature;BME280_humidity;BME280_pressure;Samples;Min_cycle;Max_cycle;Signal;HPM_P1;HPM_P2
2023/03/30 00:00:20;;;;;;;49.50;24.40;;;;;;;-128.00;-1.00;-1.00;105319;1257;1004176;-80
2023/03/30 00:03:06;;;;;;;55.40;26.40;;;;;;;-128.00;-1.00;-1.00;105271;1261;1045619;-80
2023/03/30 00:05:33;;;;;;;53.30;26.20;;;;;;;-128.00;-1.00;-1.00;105279;1257;1003525;-80
2023/03/30 00:07:59;;;;;;;44.50;22.50;;;;;;;-128.00;-1.00;-1.00;105143;1257;1003830;-78
2023/03/30 00:10:26;;;;;;;46.40;21.70;;;;;;;-128.00;-1.00;-1.00;105294;1261;1004276;-79
2023/03/30 00:12:52;;;;;;;42.90;22.00;;;;;;;-128.00;-1.00;-1.00;105311;1257;1004813;-78
2023/03/30 00:15:20;;;;;;;38.70;19.70;;;;;;;-128.00;-1.00;-1.00;105161;1258;1005405;-78
2023/03/30 00:17:47;;;;;;;41.30;20.80;;;;;;;-128.00;-1.00;-1.00;105316;1257;1003436;-78
2023/03/30 00:20:13;;;;;;;44.40;20.40;;;;;;;-128.00;-1.00;-1.00;105344;1256;1004558;-80
2023/03/30 00:22:40;;;;;;;44.70;22.20;;;;;;;-128.00;-1.00;-1.00;105302;1256;1004537;-78
2023/03/30 00:25:08;;;;;;;48.60;22.70;;;;;;;-128.00;-1.00;-1.00;105310;1256;1004675;-80
2023/03/30 00:27:35;;;;;;;47.10;22.90;;;;;;;-128.00;-1.00;-1.00;105312;1256;1005469;-79
2023/03/30 00:30:07;;;;;;;47.40;23.80;;;;;;;-128.00;-1.00;-1.00;104181;1261;1005290;-79
2023/03/30 00:32:34;;;;;;;43.30;24.60;;;;;;;-128.00;-1.00;-1.00;105333;1257;1061492;-78
2023/03/30 00:35:01;;;;;;;44.70;22.40;;;;;;;-128.00;-1.00;-1.00;105305;1257;1004545;-79
2023/03/30 00:37:28;;;;;;;41.80;22.40;;;;;;;-128.00;-1.00;-1.00;105313;1257;1005523;-78
2023/03/30 00:39:55;;;;;;;45.30;21.20;;;;;;;-128.00;-1.00;-1.00;105312;1257;1004758;-78
2023/03/30 00:42:21;;;;;;;44.10;21.00;;;;;;;-128.00;-1.00;-1.00;105306;1257;1004963;-79
2023/03/30 00:45:20;;;;;;;39.40;22.10;;;;;;;-128.00;-1.00;-1.00;105324;1257;1004225;-81
2023/03/30 00:47:49;;;;;;;32.50;16.70;;;;;;;-128.00;-1.00;-1.00;105187;1256;1057899;-80
2023/03/30 00:50:16;;;;;;;36.30;17.20;;;;;;;-128.00;-1.00;-1.00;105159;1257;1059087;-79
2023/03/30 00:52:44;;;;;;;38.10;18.30;;;;;;;-128.00;-1.00;-1.00;105147;1257;1004600;-78
2023/03/30 00:55:10;;;;;;;30.50;16.60;;;;;;;-128.00;-1.00;-1.00;105112;1261;1004241;-78
2023/03/30 00:57:37;;;;;;;32.30;18.20;;;;;;;-128.00;-1.00;-1.00;105189;1257;1005746;-78
2023/03/30 01:00:06;;;;;;;39.40;19.80;;;;;;;-128.00;-1.00;-1.00;105200;1257;1004293;-78
2023/03/30 01:02:36;;;;;;;47.50;20.90;;;;;;;-128.00;-1.00;-1.00;105128;1257;1059516;-81
2023/03/30 01:05:03;;;;;;;43.80;23.30;;;;;;;-128.00;-1.00;-1.00;105121;1257;1047058;-78
2023/03/30 01:07:30;;;;;;;41.00;20.90;;;;;;;-128.00;-1.00;-1.00;105319;1261;1005457;-78
2023/03/30 01:09:56;;;;;;;44.00;21.30;;;;;;;-128.00;-1.00;-1.00;105293;1257;1005071;-78
2023/03/30 01:12:24;;;;;;;41.30;22.50;;;;;;;-128.00;-1.00;-1.00;105184;1257;1003450;-78
2023/03/30 01:14:50;;;;;;;41.80;24.50;;;;;;;-128.00;-1.00;-1.00;105149;1261;1004499;-78
2023/03/30 01:17:41;;;;;;;44.20;23.30;;;;;;;-128.00;-1.00;-1.00;105299;1260;1003816;-78
2023/03/30 01:20:28;;;;;;;42.40;21.10;;;;;;;-128.00;-1.00;-1.00;105149;1257;1047269;-79
2023/03/30 01:23:04;;;;;;;39.90;22.00;;;;;;;-128.00;-1.00;-1.00;105200;1259;1062345;-78
2023/03/30 01:25:55;;;;;;;40.50;21.80;;;;;;;-128.00;-1.00;-1.00;105299;1257;1058060;-80
2023/03/30 01:28:29;;;;;;;41.70;22.70;;;;;;;-128.00;-1.00;-1.00;105172;1257;1059559;-80
2023/03/30 01:31:15;;;;;;;39.00;23.00;;;;;;;-128.00;-1.00;-1.00;105138;1257;1045903;-80
2023/03/30 01:33:56;;;;;;;43.30;21.40;;;;;;;-128.00;-1.00;-1.00;105312;1258;1046528;-78
2023/03/30 01:36:51;;;;;;;39.40;20.70;;;;;;;-128.00;-1.00;-1.00;105138;1257;1061956;-80
2023/03/30 01:40:04;;;;;;;45.30;22.20;;;;;;;-128.00;-1.00;-1.00;105292;1257;1058163;-79
2023/03/30 01:42:34;;;;;;;36.70;20.60;;;;;;;-128.00;-1.00;-1.00;102358;1257;1059605;-79
2023/03/30 01:45:12;;;;;;;48.80;25.00;;;;;;;-128.00;-1.00;-1.00;102533;1257;1048020;-79
2023/03/30 01:48:12;;;;;;;54.10;26.20;;;;;;;-128.00;-1.00;-1.00;105275;1257;1047941;-80
2023/03/30 01:50:49;;;;;;;55.30;31.00;;;;;;;-128.00;-1.00;-1.00;102705;1257;1061205;-79
2023/03/30 01:53:22;;;;;;;51.20;29.50;;;;;;;-128.00;-1.00;-1.00;102368;1257;1058227;-78
2023/03/30 01:55:52;;;;;;;40.20;23.00;;;;;;;-128.00;-1.00;-1.00;102597;1262;1061235;-78
2023/03/30 01:58:29;;;;;;;46.70;23.50;;;;;;;-128.00;-1.00;-1.00;102381;1264;1045203;-77
2023/03/30 02:00:56;;;;;;;49.60;23.50;;;;;;;-128.00;-1.00;-1.00;102440;1263;1047058;-78
2023/03/30 02:03:26;;;;;;;36.70;20.70;;;;;;;-128.00;-1.00;-1.00;103617;1257;1004318;-79
2023/03/30 02:06:05;;;;;;;39.10;20.50;;;;;;;-128.00;-1.00;-1.00;105116;1258;1058146;-80
2023/03/30 02:08:32;;;;;;;39.90;19.20;;;;;;;-128.00;-1.00;-1.00;105189;1258;1059000;-80
2023/03/30 02:10:59;;;;;;;44.70;20.10;;;;;;;-128.00;-1.00;-1.00;105202;1257;1003999;-78
2023/03/30 02:13:26;;;;;;;40.10;23.50;;;;;;;-128.00;-1.00;-1.00;105182;1257;1003959;-79
2023/03/30 02:15:58;;;;;;;36.40;19.00;;;;;;;-128.00;-1.00;-1.00;105182;1257;1004729;-81
2023/03/30 02:18:24;;;;;;;34.70;17.20;;;;;;;-128.00;-1.00;-1.00;105129;1257;1057470;-78
2023/03/30 02:20:51;;;;;;;35.80;17.60;;;;;;;-128.00;-1.00;-1.00;105122;1257;1004267;-79
2023/03/30 02:23:19;;;;;;;34.00;18.50;;;;;;;-128.00;-1.00;-1.00;105174;1257;1004749;-79
2023/03/30 02:25:45;;;;;;;37.50;17.70;;;;;;;-128.00;-1.00;-1.00;105125;1257;1005766;-78
2023/03/30 02:28:12;;;;;;;30.00;18.00;;;;;;;-128.00;-1.00;-1.00;103575;1258;1004728;-78
2023/03/30 02:30:39;;;;;;;36.90;18.60;;;;;;;-128.00;-1.00;-1.00;102545;1258;1003980;-80
2023/03/30 02:33:07;;;;;;;38.80;22.80;;;;;;;-128.00;-1.00;-1.00;102428;1263;1006288;-78
2023/03/30 02:36:02;;;;;;;36.30;19.70;;;;;;;-128.00;-1.00;-1.00;102415;1261;1005831;-79
2023/03/30 02:39:03;;;;;;;28.80;15.60;;;;;;;-128.00;-1.00;-1.00;102542;1257;1050338;-78
2023/03/30 02:41:36;;;;;;;32.10;15.80;;;;;;;-128.00;-1.00;-1.00;102379;1257;1062600;-78
2023/03/30 02:44:09;;;;;;;34.30;17.20;;;;;;;-128.00;-1.00;-1.00;102532;1263;1059949;-78
2023/03/30 02:46:41;;;;;;;38.20;19.50;;;;;;;-128.00;-1.00;-1.00;102471;1262;1061245;-78
2023/03/30 02:49:13;;;;;;;31.10;16.40;;;;;;;-128.00;-1.00;-1.00;102545;1258;1048454;-80
2023/03/30 02:51:47;;;;;;;28.60;16.50;;;;;;;-128.00;-1.00;-1.00;102367;1257;1047181;-78
2023/03/30 02:54:35;;;;;;;29.80;16.70;;;;;;;-128.00;-1.00;-1.00;102516;1257;1063371;-78
2023/03/30 02:57:13;;;;;;;41.90;25.10;;;;;;;-128.00;-1.00;-1.00;102532;1257;1060046;-77
2023/03/30 02:59:47;;;;;;;47.50;26.40;;;;;;;-128.00;-1.00;-1.00;102224;1264;1059213;-78
2023/03/30 03:02:20;;;;;;;37.90;22.10;;;;;;;-128.00;-1.00;-1.00;105343;1257;1046495;-78
2023/03/30 03:04:46;;;;;;;31.10;17.80;;;;;;;-128.00;-1.00;-1.00;105107;1257;1046533;-80
2023/03/30 03:07:13;;;;;;;31.10;16.50;;;;;;;-128.00;-1.00;-1.00;105190;1258;1003833;-80
2023/03/30 03:09:40;;;;;;;31.40;14.80;;;;;;;-128.00;-1.00;-1.00;103201;1258;1004361;-78
2023/03/30 03:12:06;;;;;;;30.30;16.60;;;;;;;-128.00;-1.00;-1.00;102217;1261;1004854;-78
2023/03/30 03:14:32;;;;;;;34.20;16.60;;;;;;;-128.00;-1.00;-1.00;102350;1257;1005284;-80
2023/03/30 03:16:59;;;;;;;29.30;16.50;;;;;;;-128.00;-1.00;-1.00;102559;1256;1005008;-80
2023/03/30 03:19:25;;;;;;;31.30;19.60;;;;;;;-128.00;-1.00;-1.00;102583;1257;1004626;-80
2023/03/30 03:21:52;;;;;;;35.50;20.90;;;;;;;-128.00;-1.00;-1.00;102508;1257;1004630;-79
2023/03/30 03:24:18;;;;;;;28.80;17.00;;;;;;;-128.00;-1.00;-1.00;102531;1257;1004423;-79
2023/03/30 03:26:45;;;;;;;32.10;19.60;;;;;;;-128.00;-1.00;-1.00;102551;1258;1007699;-78
2023/03/30 03:29:11;;;;;;;31.40;19.60;;;;;;;-128.00;-1.00;-1.00;102537;1260;1004193;-80
2023/03/30 03:31:38;;;;;;;36.20;19.90;;;;;;;-128.00;-1.00;-1.00;102519;1268;1004303;-78
2023/03/30 03:34:04;;;;;;;35.40;21.20;;;;;;;-128.00;-1.00;-1.00;102538;1261;1004807;-80
2023/03/30 03:36:31;;;;;;;42.10;21.50;;;;;;;-128.00;-1.00;-1.00;102536;1257;1004174;-79
2023/03/30 03:38:57;;;;;;;60.20;32.80;;;;;;;-128.00;-1.00;-1.00;102498;1260;1005260;-79
2023/03/30 03:41:24;;;;;;;36.10;21.90;;;;;;;-128.00;-1.00;-1.00;102468;1260;1003956;-80
2023/03/30 03:43:50;;;;;;;32.10;16.30;;;;;;;-128.00;-1.00;-1.00;102563;1257;1004737;-78
2023/03/30 03:46:16;;;;;;;26.00;15.10;;;;;;;-128.00;-1.00;-1.00;102610;1260;1004775;-80
2023/03/30 03:48:43;;;;;;;20.50;10.20;;;;;;;-128.00;-1.00;-1.00;102491;1257;1047361;-79
2023/03/30 03:51:10;;;;;;;21.90;9.60;;;;;;;-128.00;-1.00;-1.00;103711;1257;1004844;-80
2023/03/30 03:53:36;;;;;;;21.50;11.50;;;;;;;-128.00;-1.00;-1.00;105194;1256;1004825;-80
2023/03/30 03:56:02;;;;;;;21.80;11.80;;;;;;;-128.00;-1.00;-1.00;105244;1257;1004686;-80
2023/03/30 03:58:29;;;;;;;21.00;12.10;;;;;;;-128.00;-1.00;-1.00;105079;1257;1004002;-79
2023/03/30 04:01:00;;;;;;;19.90;9.90;;;;;;;-128.00;-1.00;-1.00;102190;1263;1004536;-79
2023/03/30 04:03:26;;;;;;;23.70;14.60;;;;;;;-128.00;-1.00;-1.00;105278;1257;1047162;-78
2023/03/30 04:05:53;;;;;;;21.30;11.00;;;;;;;-128.00;-1.00;-1.00;105244;1257;1004900;-77
2023/03/30 04:08:20;;;;;;;25.20;12.20;;;;;;;-128.00;-1.00;-1.00;105269;1256;1003736;-78
2023/03/30 04:10:47;;;;;;;28.10;16.40;;;;;;;-128.00;-1.00;-1.00;105231;1257;1004139;-80
2023/03/30 04:13:13;;;;;;;26.00;15.30;;;;;;;-128.00;-1.00;-1.00;105115;1256;1004421;-79
2023/03/30 04:15:40;;;;;;;24.90;13.40;;;;;;;-128.00;-1.00;-1.00;102596;1258;1004776;-79
2023/03/30 04:18:07;;;;;;;32.20;17.60;;;;;;;-128.00;-1.00;-1.00;102633;1260;1004100;-79
2023/03/30 04:20:33;;;;;;;26.30;14.60;;;;;;;-128.00;-1.00;-1.00;102563;1257;1004093;-78
2023/03/30 04:23:00;;;;;;;26.00;12.20;;;;;;;-128.00;-1.00;-1.00;102596;1258;1004689;-77
2023/03/30 04:25:27;;;;;;;22.90;12.30;;;;;;;-128.00;-1.00;-1.00;102465;1257;1004160;-77
2023/03/30 04:27:54;;;;;;;21.60;10.80;;;;;;;-128.00;-1.00;-1.00;102253;1256;1004859;-78
2023/03/30 04:30:21;;;;;;;44.80;11.10;;;;;;;-128.00;-1.00;-1.00;102557;1259;1003593;-79
2023/03/30 04:32:53;;;;;;;17.40;8.60;;;;;;;-128.00;-1.00;-1.00;105132;1257;1003500;-78
2023/03/30 04:35:19;;;;;;;16.80;9.50;;;;;;;-128.00;-1.00;-1.00;105133;1258;1059382;-78
2023/03/30 04:37:51;;;;;;;24.80;12.30;;;;;;;-128.00;-1.00;-1.00;104162;1260;1003951;-77
2023/03/30 04:40:18;;;;;;;20.70;12.20;;;;;;;-128.00;-1.00;-1.00;102522;1257;1046878;-78
2023/03/30 04:42:48;;;;;;;20.70;12.00;;;;;;;-128.00;-1.00;-1.00;102519;1257;1004452;-78
2023/03/30 04:45:18;;;;;;;18.80;11.10;;;;;;;-128.00;-1.00;-1.00;102595;1257;1059490;-78
2023/03/30 04:47:45;;;;;;;20.30;10.30;;;;;;;-128.00;-1.00;-1.00;102536;1257;1061393;-79
2023/03/30 04:50:11;;;;;;;24.30;11.40;;;;;;;-128.00;-1.00;-1.00;102494;1256;1004173;-78
2023/03/30 04:52:38;;;;;;;17.90;9.70;;;;;;;-128.00;-1.00;-1.00;102607;1260;1004560;-80
2023/03/30 04:55:05;;;;;;;19.50;9.20;;;;;;;-128.00;-1.00;-1.00;102570;1260;1004857;-77
2023/03/30 04:57:31;;;;;;;22.60;10.70;;;;;;;-128.00;-1.00;-1.00;102544;1257;1004999;-78
2023/03/30 04:59:57;;;;;;;24.70;11.50;;;;;;;-128.00;-1.00;-1.00;102884;1260;1003960;-79
2023/03/30 05:02:24;;;;;;;24.20;11.80;;;;;;;-128.00;-1.00;-1.00;102769;1258;1005857;-80
2023/03/30 05:04:50;;;;;;;22.80;12.10;;;;;;;-128.00;-1.00;-1.00;102388;1264;1004231;-79
2023/03/30 05:07:17;;;;;;;36.00;12.10;;;;;;;-128.00;-1.00;-1.00;102744;1261;1004850;-78
2023/03/30 05:09:43;;;;;;;20.50;11.40;;;;;;;-128.00;-1.00;-1.00;102888;1260;1005124;-78
2023/03/30 05:12:10;;;;;;;19.50;10.20;;;;;;;-128.00;-1.00;-1.00;102889;1256;1004228;-78
2023/03/30 05:14:36;;;;;;;20.80;10.30;;;;;;;-128.00;-1.00;-1.00;102927;1258;1004446;-78
2023/03/30 05:17:03;;;;;;;24.20;11.40;;;;;;;-128.00;-1.00;-1.00;104233;1256;1005001;-78
2023/03/30 05:19:29;;;;;;;24.50;11.30;;;;;;;-128.00;-1.00;-1.00;104372;1257;1004236;-80
2023/03/30 05:21:56;;;;;;;19.20;9.20;;;;;;;-128.00;-1.00;-1.00;102627;1260;1004126;-78
2023/03/30 05:24:23;;;;;;;14.70;8.80;;;;;;;-128.00;-1.00;-1.00;102620;1256;1004262;-78
2023/03/30 05:26:49;;;;;;;17.10;9.20;;;;;;;-128.00;-1.00;-1.00;104955;1257;1003691;-78
2023/03/30 05:29:16;;;;;;;21.50;8.90;;;;;;;-128.00;-1.00;-1.00;105020;1257;1005065;-78
2023/03/30 05:31:42;;;;;;;16.80;9.80;;;;;;;-128.00;-1.00;-1.00;105044;1257;1004340;-78
2023/03/30 05:34:09;;;;;;;22.10;12.20;;;;;;;-128.00;-1.00;-1.00;104998;1257;1003423;-78
2023/03/30 05:36:35;;;;;;;21.70;10.90;;;;;;;-128.00;-1.00;-1.00;105019;1257;1005077;-80
2023/03/30 05:39:03;;;;;;;26.50;13.40;;;;;;;-128.00;-1.00;-1.00;103251;1256;1003842;-78
2023/03/30 05:41:30;;;;;;;25.70;12.90;;;;;;;-128.00;-1.00;-1.00;102515;1261;1005031;-79
2023/03/30 05:43:56;;;;;;;31.70;14.00;;;;;;;-134.59;39.40;47640.84;104766;1257;1005241;-78
2023/03/30 05:46:23;;;;;;;34.70;14.80;;;;;;;-134.59;39.40;47640.84;104894;1257;1002593;-79
2023/03/30 05:48:50;;;;;;;30.40;11.70;;;;;;;-131.29;19.20;23819.92;104049;1256;1002801;-79
2023/03/30 05:51:16;;;;;;;18.80;9.10;;;;;;;-134.59;39.40;47640.84;105300;1258;1002658;-80
2023/03/30 05:53:44;;;;;;;10.50;6.00;;;;;;;-128.00;-1.00;-1.00;103821;1256;1010629;-80
2023/03/30 05:56:10;;;;;;;15.70;9.00;;;;;;;-128.00;-1.00;-1.00;104015;1257;1003214;-78
2023/03/30 05:58:37;;;;;;;19.60;8.40;;;;;;;-128.00;-1.00;-1.00;103883;1257;1003403;-80
2023/03/30 06:01:04;;;;;;;14.60;7.60;;;;;;;-128.00;-1.00;-1.00;104235;1256;1003204;-78
2023/03/30 06:03:30;;;;;;;19.50;9.90;;;;;;;-128.00;-1.00;-1.00;104048;1256;1003816;-77
2023/03/30 06:05:57;;;;;;;12.10;6.80;;;;;;;-128.00;-1.00;-1.00;103642;1260;1002602;-76
2023/03/30 06:08:25;;;;;;;16.00;8.90;;;;;;;-128.00;-1.00;-1.00;103646;1257;1002941;-76
2023/03/30 06:10:53;;;;;;;11.40;6.40;;;;;;;-128.00;-1.00;-1.00;103610;1260;1013080;-78
2023/03/30 06:13:20;;;;;;;13.00;7.40;;;;;;;-128.00;-1.00;-1.00;103536;1256;1002318;-76
2023/03/30 06:15:46;;;;;;;19.80;9.50;;;;;;;-128.00;-1.00;-1.00;103631;1259;1003498;-76
2023/03/30 06:18:13;;;;;;;21.60;8.00;;;;;;;-128.00;-1.00;-1.00;103564;1259;1002863;-78
2023/03/30 06:20:39;;;;;;;14.10;8.00;;;;;;;-128.00;-1.00;-1.00;103587;1257;1003034;-78
2023/03/30 06:23:06;;;;;;;17.90;9.50;;;;;;;-128.00;-1.00;-1.00;103631;1256;1002625;-80
2023/03/30 06:25:32;;;;;;;20.10;15.70;;;;;;;-128.00;-1.00;-1.00;103653;1256;1004650;-78
2023/03/30 06:27:59;;;;;;;23.00;13.00;;;;;;;-128.00;-1.00;-1.00;103583;1256;1003015;-80
2023/03/30 06:30:25;;;;;;;40.90;19.30;;;;;;;-128.00;-1.00;-1.00;103608;1256;1003043;-78
2023/03/30 06:32:52;;;;;;;29.80;17.40;;;;;;;-128.00;-1.00;-1.00;103913;1262;1003201;-78
2023/03/30 06:35:18;;;;;;;20.60;13.20;;;;;;;-128.00;-1.00;-1.00;103818;1256;1002931;-79
2023/03/30 06:37:45;;;;;;;16.10;8.20;;;;;;;-128.00;-1.00;-1.00;103936;1256;1002783;-78
2023/03/30 06:40:14;;;;;;;24.10;10.00;;;;;;;-128.00;-1.00;-1.00;103905;1257;1002410;-80
2023/03/30 06:42:43;;;;;;;18.60;10.50;;;;;;;-128.00;-1.00;-1.00;103870;1256;1010849;-78
2023/03/30 06:45:10;;;;;;;15.80;9.40;;;;;;;-128.00;-1.00;-1.00;106335;1256;1012764;-79
2023/03/30 06:47:36;;;;;;;17.00;10.10;;;;;;;-128.00;-1.00;-1.00;105471;1256;1002475;-80
2023/03/30 06:50:03;;;;;;;19.80;10.00;;;;;;;-128.00;-1.00;-1.00;103397;1256;1002163;-78
2023/03/30 06:52:33;;;;;;;16.10;9.40;;;;;;;-128.00;-1.00;-1.00;103611;1256;1003135;-78
2023/03/30 06:55:00;;;;;;;20.30;11.30;;;;;;;-128.00;-1.00;-1.00;104570;1257;1011326;-80
2023/03/30 06:57:26;;;;;;;19.50;10.70;;;;;;;-128.00;-1.00;-1.00;103720;1256;1002732;-80
2023/03/30 06:59:53;;;;;;;31.10;11.90;;;;;;;-128.00;-1.00;-1.00;103667;1255;1002267;-80
2023/03/30 07:02:19;;;;;;;25.10;11.10;;;;;;;-128.00;-1.00;-1.00;103701;1257;1003561;-80
2023/03/30 07:04:46;;;;;;;23.80;10.60;;;;;;;-128.00;-1.00;-1.00;103659;1258;1004424;-78
2023/03/30 07:07:12;;;;;;;17.50;9.60;;;;;;;-128.00;-1.00;-1.00;103633;1260;1003830;-78
2023/03/30 07:09:39;;;;;;;16.60;9.20;;;;;;;-128.00;-1.00;-1.00;103605;1257;1002684;-78
2023/03/30 07:12:05;;;;;;;37.70;15.80;;;;;;;-128.00;-1.00;-1.00;103549;1256;1003247;-78
2023/03/30 07:14:32;;;;;;;25.00;12.80;;;;;;;-128.00;-1.00;-1.00;103614;1256;1003072;-78
2023/03/30 07:16:59;;;;;;;19.70;10.70;;;;;;;-128.00;-1.00;-1.00;103565;1257;1002548;-80
2023/03/30 07:19:25;;;;;;;20.40;10.70;;;;;;;-128.00;-1.00;-1.00;103466;1256;1002629;-79
2023/03/30 07:21:51;;;;;;;18.40;9.40;;;;;;;-128.00;-1.00;-1.00;103440;1260;1002926;-78
2023/03/30 07:24:18;;;;;;;22.30;10.50;;;;;;;-128.00;-1.00;-1.00;104249;1256;1003291;-78
2023/03/30 07:26:44;;;;;;;41.90;22.90;;;;;;;-128.00;-1.00;-1.00;103516;1256;1002339;-80
2023/03/30 07:29:11;;;;;;;12.70;7.50;;;;;;;-128.00;-1.00;-1.00;103709;1257;1002520;-80
2023/03/30 07:31:37;;;;;;;16.90;8.30;;;;;;;-128.00;-1.00;-1.00;103676;1256;1003442;-80
2023/03/30 07:34:04;;;;;;;16.30;7.50;;;;;;;-128.00;-1.00;-1.00;103751;1256;1003845;-78
2023/03/30 07:36:30;;;;;;;15.80;8.30;;;;;;;-128.00;-1.00;-1.00;103629;1262;1004114;-78
2023/03/30 07:38:58;;;;;;;21.00;8.90;;;;;;;-128.00;-1.00;-1.00;103692;1256;1002845;-78
2023/03/30 07:41:24;;;;;;;31.10;11.90;;;;;;;-128.00;-1.00;-1.00;103656;1256;1002376;-78
2023/03/30 07:43:51;;;;;;;39.90;20.30;;;;;;;-128.00;-1.00;-1.00;103484;1256;1002955;-78
2023/03/30 07:46:17;;;;;;;41.10;23.60;;;;;;;-128.00;-1.00;-1.00;103508;1257;1002245;-80
2023/03/30 07:48:43;;;;;;;30.00;17.30;;;;;;;-128.00;-1.00;-1.00;103637;1256;1003152;-80
2023/03/30 07:51:11;;;;;;;29.40;18.50;;;;;;;-128.00;-1.00;-1.00;103544;1256;1002684;-81
2023/03/30 07:53:38;;;;;;;48.00;28.60;;;;;;;-128.00;-1.00;-1.00;103535;1257;1002964;-80
2023/03/30 07:56:05;;;;;;;55.80;35.90;;;;;;;-128.00;-1.00;-1.00;103541;1256;1004477;-79
2023/03/30 07:58:31;;;;;;;79.90;48.80;;;;;;;-128.00;-1.00;-1.00;103503;1257;1003516;-79
2023/03/30 08:00:58;;;;;;;212.90;110.00;;;;;;;-128.00;-1.00;-1.00;103456;1257;1002653;-77
2023/03/30 08:03:24;;;;;;;115.60;59.40;;;;;;;-128.00;-1.00;-1.00;103566;1256;1004824;-79
2023/03/30 08:05:52;;;;;;;39.30;21.30;;;;;;;-128.00;-1.00;-1.00;103508;1255;1002967;-80
2023/03/30 08:08:19;;;;;;;66.70;40.90;;;;;;;-128.00;-1.00;-1.00;103509;1257;1011473;-77
2023/03/30 08:10:45;;;;;;;72.40;48.80;;;;;;;-128.00;-1.00;-1.00;103463;1257;1002384;-79
2023/03/30 08:13:12;;;;;;;101.40;68.00;;;;;;;-128.00;-1.00;-1.00;103517;1256;1002874;-79
2023/03/30 08:15:38;;;;;;;92.40;63.20;;;;;;;-128.00;-1.00;-1.00;103318;1257;1002700;-77
2023/03/30 08:18:06;;;;;;;149.00;90.50;;;;;;;-128.00;-1.00;-1.00;103523;1259;1003002;-78
2023/03/30 08:20:35;;;;;;;102.00;64.30;;;;;;;-128.00;-1.00;-1.00;103506;1260;1011537;-79
2023/03/30 08:23:01;;;;;;;67.70;44.90;;;;;;;-128.00;-1.00;-1.00;103527;1260;1013539;-77
2023/03/30 08:25:28;;;;;;;32.90;20.60;;;;;;;-128.00;-1.00;-1.00;103538;1257;1003220;-78
2023/03/30 08:27:55;;;;;;;29.10;14.50;;;;;;;-128.00;-1.00;-1.00;103502;1257;1004177;-80
2023/03/30 08:30:21;;;;;;;19.70;11.10;;;;;;;-128.00;-1.00;-1.00;103479;1256;1003783;-80
2023/03/30 08:32:48;;;;;;;24.80;14.70;;;;;;;-128.00;-1.00;-1.00;103471;1256;1004477;-77
2023/03/30 08:35:15;;;;;;;20.20;12.00;;;;;;;-128.00;-1.00;-1.00;103476;1256;1002396;-77
2023/03/30 08:37:42;;;;;;;14.50;7.90;;;;;;;-128.00;-1.00;-1.00;103563;1257;1004303;-77
2023/03/30 08:40:10;;;;;;;74.20;13.20;;;;;;;-128.00;-1.00;-1.00;103493;1260;1002512;-79
2023/03/30 08:43:03;;;;;;;24.90;8.60;;;;;;;-128.00;-1.00;-1.00;104130;1256;1009824;-79
2023/03/30 08:45:37;;;;;;;18.70;6.90;;;;;;;-128.00;-1.00;-1.00;103579;1255;1010834;-77
2023/03/30 08:48:15;;;;;;;13.80;7.50;;;;;;;-128.00;-1.00;-1.00;103700;1257;1013254;-77
2023/03/30 08:50:42;;;;;;;10.60;5.90;;;;;;;-128.00;-1.00;-1.00;103469;1259;1012960;-79
2023/03/30 08:53:10;;;;;;;12.20;5.00;;;;;;;-128.00;-1.00;-1.00;103431;1258;1002974;-77
2023/03/30 08:55:39;;;;;;;22.40;8.00;;;;;;;-128.00;-1.00;-1.00;103550;1257;1002800;-77
2023/03/30 08:58:21;;;;;;;11.50;8.40;;;;;;;-128.00;-1.00;-1.00;105183;1256;1011360;-77
2023/03/30 09:01:00;;;;;;;16.40;12.30;;;;;;;-128.00;-1.00;-1.00;103539;1256;1013499;-79
2023/03/30 09:03:30;;;;;;;12.30;8.50;;;;;;;-128.00;-1.00;-1.00;103722;1256;1013436;-77
2023/03/30 09:06:06;;;;;;;21.90;9.70;;;;;;;-128.00;-1.00;-1.00;103247;1257;1012629;-77
2023/03/30 09:08:32;;;;;;;28.10;15.80;;;;;;;-128.00;-1.00;-1.00;103486;1257;1012028;-78
2023/03/30 09:11:00;;;;;;;8.20;5.20;;;;;;;-128.00;-1.00;-1.00;103407;1257;1002943;-78
2023/03/30 09:13:33;;;;;;;18.10;9.70;;;;;;;-128.00;-1.00;-1.00;103494;1257;1004572;-80
2023/03/30 09:16:25;;;;;;;74.30;38.00;;;;;;;-128.00;-1.00;-1.00;103549;1260;1012945;-81
2023/03/30 09:18:53;;;;;;;48.30;24.90;;;;;;;-128.00;-1.00;-1.00;103468;1257;1013325;-81
2023/03/30 09:21:21;;;;;;;20.30;14.00;;;;;;;-128.00;-1.00;-1.00;103528;1259;1004014;-80
2023/03/30 09:23:48;;;;;;;13.40;9.80;;;;;;;-128.00;-1.00;-1.00;103471;1256;1002927;-78
2023/03/30 09:26:20;;;;;;;37.20;17.70;;;;;;;-128.00;-1.00;-1.00;103404;1257;1002803;-79
2023/03/30 09:28:47;;;;;;;29.20;17.90;;;;;;;-128.00;-1.00;-1.00;103354;1257;1012838;-78
2023/03/30 09:31:19;;;;;;;31.50;21.00;;;;;;;-128.00;-1.00;-1.00;103555;1256;1002821;-79
2023/03/30 09:33:57;;;;;;;9.50;5.10;;;;;;;-128.00;-1.00;-1.00;103534;1257;1009379;-78
2023/03/30 09:36:43;;;;;;;16.70;9.60;;;;;;;-128.00;-1.00;-1.00;103313;1256;1011973;-80
2023/03/30 09:39:18;;;;;;;36.10;18.20;;;;;;;-128.00;-1.00;-1.00;103230;1262;1013041;-80
2023/03/30 09:42:12;;;;;;;13.10;9.10;;;;;;;-128.00;-1.00;-1.00;103376;1260;1016256;-80
2023/03/30 09:44:50;;;;;;;12.50;4.30;;;;;;;-128.00;-1.00;-1.00;103749;1256;1013874;-79
2023/03/30 09:47:25;;;;;;;3.90;2.20;;;;;;;-128.00;-1.00;-1.00;103425;1257;1009789;-78
2023/03/30 09:50:00;;;;;;;6.00;2.60;;;;;;;-128.00;-1.00;-1.00;103501;1256;1011647;-81
2023/03/30 09:52:27;;;;;;;4.90;2.20;;;;;;;-128.00;-1.00;-1.00;103516;1257;1013492;-78
2023/03/30 09:54:54;;;;;;;4.40;2.10;;;;;;;-128.00;-1.00;-1.00;103452;1260;1002656;-81
2023/03/30 09:57:23;;;;;;;10.10;2.20;;;;;;;-128.00;-1.00;-1.00;103155;1256;1002588;-79
2023/03/30 09:59:51;;;;;;;;;;;;;;;-128.00;-1.00;-1.00;103379;1262;1009876;-78
2023/03/30 10:02:19;;;;;;;19.50;5.00;;;;;;;-128.00;-1.00;-1.00;103569;1257;1003757;-80
2023/03/30 10:04:51;;;;;;;7.80;3.00;;;;;;;-128.00;-1.00;-1.00;103465;1256;1002442;-79
2023/03/30 10:07:22;;;;;;;12.60;3.00;;;;;;;-128.00;-1.00;-1.00;103461;1260;1013274;-78
2023/03/30 10:09:49;;;;;;;7.20;3.00;;;;;;;-128.00;-1.00;-1.00;103399;1256;1013559;-79
2023/03/30 10:12:16;;;;;;;5.30;3.50;;;;;;;-128.00;-1.00;-1.00;103428;1256;1003160;-80
2023/03/30 10:14:42;;;;;;;8.70;3.30;;;;;;;-128.00;-1.00;-1.00;103279;1256;1002943;-80
2023/03/30 10:17:17;;;;;;;9.50;2.60;;;;;;;-128.00;-1.00;-1.00;103434;1256;1002399;-81
2023/03/30 10:19:44;;;;;;;7.90;3.30;;;;;;;-128.00;-1.00;-1.00;103595;1262;1013221;-79
2023/03/30 10:22:16;;;;;;;5.90;2.90;;;;;;;-128.00;-1.00;-1.00;103511;1256;1002315;-79
2023/03/30 10:24:53;;;;;;;2.60;1.70;;;;;;;-128.00;-1.00;-1.00;103569;1256;1010342;-80
2023/03/30 10:27:26;;;;;;;3.90;2.10;;;;;;;-128.00;-1.00;-1.00;103536;1256;1011059;-79
2023/03/30 10:29:53;;;;;;;4.90;2.20;;;;;;;-128.00;-1.00;-1.00;106330;1257;1013151;-78
2023/03/30 10:32:20;;;;;;;6.20;2.50;;;;;;;-128.00;-1.00;-1.00;106348;1256;1002246;-78
2023/03/30 10:34:49;;;;;;;8.50;2.50;;;;;;;-128.00;-1.00;-1.00;105680;1256;1002559;-76
2023/03/30 10:37:21;;;;;;;3.30;1.60;;;;;;;-128.00;-1.00;-1.00;103715;1256;1010429;-78
2023/03/30 10:39:47;;;;;;;13.40;6.20;;;;;;;-128.00;-1.00;-1.00;103396;1259;1012116;-78
2023/03/30 10:42:15;;;;;;;12.70;3.10;;;;;;;-128.00;-1.00;-1.00;103363;1257;1002931;-78
2023/03/30 10:44:48;;;;;;;6.60;1.90;;;;;;;-128.00;-1.00;-1.00;103651;1262;1002561;-77
2023/03/30 10:47:24;;;;;;;12.60;4.30;;;;;;;-128.00;-1.00;-1.00;104800;1255;1012993;-77
2023/03/30 10:50:15;;;;;;;17.20;7.10;;;;;;;-128.00;-1.00;-1.00;103344;1259;1009527;-76
2023/03/30 10:53:18;;;;;;;14.00;5.20;;;;;;;-128.00;-1.00;-1.00;103392;1260;1011879;-78
2023/03/30 10:55:51;;;;;;;7.30;2.50;;;;;;;-128.00;-1.00;-1.00;103136;1256;1013005;-80
2023/03/30 10:58:51;;;;;;;4.10;1.80;;;;;;;-128.00;-1.00;-1.00;103353;1256;1015551;-81
2023/03/30 11:01:23;;;;;;;3.90;2.50;;;;;;;-128.00;-1.00;-1.00;104115;1257;1014445;-79
2023/03/30 11:03:56;;;;;;;4.10;2.00;;;;;;;-128.00;-1.00;-1.00;103921;1256;1009400;-80
2023/03/30 11:06:32;;;;;;;5.80;3.10;;;;;;;-128.00;-1.00;-1.00;104036;1257;1010422;-78
2023/03/30 11:09:00;;;;;;;3.60;2.00;;;;;;;-128.00;-1.00;-1.00;103381;1256;1014027;-80
2023/03/30 11:11:35;;;;;;;5.70;3.40;;;;;;;-128.00;-1.00;-1.00;105685;1256;1016769;-78
2023/03/30 11:14:04;;;;;;;4.30;2.60;;;;;;;-128.00;-1.00;-1.00;106334;1256;1012941;-79
2023/03/30 11:16:34;;;;;;;7.20;2.80;;;;;;;-128.00;-1.00;-1.00;105551;1258;1009770;-78